createdAt,value
2019-06-27T00:00:51.264Z,7.90
2019-06-27T00:03:19.267Z,7.60
2019-06-27T00:05:47.230Z,7.47
2019-06-27T00:08:15.259Z,7.67
2019-06-27T00:10:42.987Z,7.50
2019-06-27T00:13:10.860Z,7.60
2019-06-27T00:15:38.837Z,7.70
2019-06-27T00:18:06.683Z,8.20
2019-06-27T00:20:34.628Z,7.40
2019-06-27T00:23:02.502Z,7.23
2019-06-27T00:25:30.362Z,7.67
2019-06-27T00:27:58.129Z,7.87
2019-06-27T00:30:26.453Z,7.73
2019-06-27T00:32:54.206Z,8.20
2019-06-27T00:35:22.029Z,7.50
2019-06-27T00:37:49.835Z,7.73
2019-06-27T00:40:18.352Z,7.50
2019-06-27T00:42:46.254Z,7.70
2019-06-27T00:45:14.362Z,7.07
2019-06-27T00:47:42.114Z,8.03
2019-06-27T00:50:10.337Z,7.40
2019-06-27T00:52:38.275Z,6.87
2019-06-27T00:55:06.617Z,7.20
2019-06-27T00:57:34.462Z,7.27
2019-06-27T01:00:03.445Z,7.43
2019-06-27T01:02:31.992Z,7.30
2019-06-27T01:05:01.284Z,7.87
2019-06-27T01:07:29.027Z,7.70
2019-06-27T01:09:56.902Z,7.47
2019-06-27T01:12:25.275Z,7.23
2019-06-27T01:14:53.118Z,7.37
2019-06-27T01:17:20.879Z,7.63
2019-06-27T01:19:48.814Z,7.23
2019-06-27T01:22:16.850Z,7.40
2019-06-27T01:24:44.669Z,7.00
2019-06-27T01:27:12.410Z,7.73
2019-06-27T01:29:40.230Z,7.63
2019-06-27T01:32:08.080Z,8.20
2019-06-27T01:34:36.003Z,7.17
2019-06-27T01:37:03.932Z,8.20
2019-06-27T01:39:31.966Z,7.40
2019-06-27T01:41:59.719Z,7.73
2019-06-27T01:44:55.983Z,7.73
2019-06-27T01:47:23.785Z,7.47
2019-06-27T01:49:51.796Z,7.50
2019-06-27T01:52:19.830Z,7.37
2019-06-27T01:54:47.649Z,7.97
2019-06-27T01:57:16.450Z,7.47
2019-06-27T01:59:44.349Z,7.03
2019-06-27T02:02:12.787Z,7.00
2019-06-27T02:04:40.768Z,6.73
2019-06-27T02:07:08.644Z,6.67
2019-06-27T02:09:36.540Z,6.13
2019-06-27T02:12:04.509Z,6.47
2019-06-27T02:14:32.575Z,5.93
2019-06-27T02:17:00.578Z,6.10
2019-06-27T02:19:28.507Z,6.37
2019-06-27T02:21:56.500Z,6.63
2019-06-27T02:24:24.605Z,7.23
2019-06-27T02:26:52.406Z,6.17
2019-06-27T02:29:20.133Z,6.10
2019-06-27T02:31:47.942Z,6.10
2019-06-27T02:34:15.818Z,6.17
2019-06-27T02:36:43.605Z,6.30
2019-06-27T02:39:11.350Z,6.30
2019-06-27T02:41:39.947Z,6.20
2019-06-27T02:44:09.448Z,6.60
2019-06-27T02:46:37.416Z,6.10
2019-06-27T02:49:05.433Z,6.40
2019-06-27T02:51:33.461Z,6.20
2019-06-27T02:54:01.246Z,6.53
2019-06-27T02:56:29.295Z,5.97
2019-06-27T02:58:57.116Z,6.23
2019-06-27T03:01:25.127Z,7.00
2019-06-27T03:03:53.084Z,6.40
2019-06-27T03:06:21.071Z,6.27
2019-06-27T03:08:48.923Z,6.60
2019-06-27T03:11:17.851Z,6.00
2019-06-27T03:13:45.933Z,6.13
2019-06-27T03:16:13.944Z,5.30
2019-06-27T03:18:41.781Z,5.50
2019-06-27T03:21:09.640Z,5.10
2019-06-27T03:23:37.558Z,5.20
2019-06-27T03:26:06.531Z,5.10
2019-06-27T03:28:51.172Z,5.07
2019-06-27T03:31:04.211Z,5.27
2019-06-27T03:33:32.490Z,5.37
2019-06-27T03:36:00.396Z,5.87
2019-06-27T03:38:28.392Z,5.17
2019-06-27T03:40:56.353Z,5.00
2019-06-27T03:43:24.515Z,5.07
2019-06-27T03:45:54.337Z,5.43
2019-06-27T03:48:22.114Z,4.67
2019-06-27T03:50:49.873Z,5.30
2019-06-27T03:53:17.658Z,4.90
2019-06-27T03:55:45.540Z,4.37
2019-06-27T03:58:13.426Z,4.60
2019-06-27T04:00:41.239Z,4.23
2019-06-27T04:03:09.879Z,4.47
2019-06-27T04:05:37.655Z,3.93
2019-06-27T04:08:05.636Z,3.73
2019-06-27T04:10:33.658Z,3.70
2019-06-27T04:13:01.564Z,3.63
2019-06-27T04:15:29.469Z,3.70
2019-06-27T04:17:57.424Z,3.40
2019-06-27T04:20:25.339Z,3.17
2019-06-27T04:22:53.391Z,3.50
2019-06-27T04:25:21.372Z,3.33
2019-06-27T04:27:49.276Z,3.27
2019-06-27T04:30:17.235Z,3.30
2019-06-27T04:32:45.325Z,3.27
2019-06-27T04:35:16.083Z,3.17
2019-06-27T04:37:44.684Z,3.03
2019-06-27T04:40:12.529Z,3.10
2019-06-27T04:42:40.330Z,3.97
2019-06-27T04:45:09.396Z,3.50
2019-06-27T04:47:37.322Z,3.73
2019-06-27T04:50:05.235Z,3.27
2019-06-27T04:52:33.076Z,3.10
2019-06-27T04:55:03.560Z,2.97
2019-06-27T04:57:30.513Z,2.73
2019-06-27T04:59:58.394Z,3.03
2019-06-27T05:02:30.808Z,3.17
2019-06-27T05:04:57.513Z,3.00
2019-06-27T05:07:25.324Z,2.90
2019-06-27T05:09:53.150Z,3.07
2019-06-27T05:12:21.646Z,2.70
2019-06-27T05:14:49.456Z,3.00
2019-06-27T05:17:17.360Z,2.50
2019-06-27T05:19:45.099Z,2.57
2019-06-27T05:22:12.998Z,2.70
2019-06-27T05:24:40.768Z,2.90
2019-06-27T05:27:09.290Z,2.40
2019-06-27T05:29:37.167Z,2.57
2019-06-27T05:32:05.765Z,2.80
2019-06-27T05:34:33.655Z,2.80
2019-06-27T05:37:01.490Z,2.67
2019-06-27T05:39:29.335Z,3.10
2019-06-27T05:41:57.891Z,2.77
2019-06-27T05:44:25.872Z,2.40
2019-06-27T05:46:53.619Z,2.77
2019-06-27T05:49:21.977Z,2.80
2019-06-27T05:51:49.865Z,2.83
2019-06-27T05:54:17.748Z,3.60
2019-06-27T05:56:45.539Z,3.90
2019-06-27T05:59:13.259Z,4.37
2019-06-27T06:01:41.166Z,3.53
2019-06-27T06:04:08.914Z,4.00
2019-06-27T06:06:37.570Z,3.37
2019-06-27T06:09:06.021Z,4.73
2019-06-27T06:11:33.932Z,2.70
2019-06-27T06:14:01.742Z,2.50
2019-06-27T06:16:31.203Z,2.67
2019-06-27T06:18:58.989Z,2.70
2019-06-27T06:21:26.829Z,2.33
2019-06-27T06:23:54.774Z,2.30
2019-06-27T06:26:22.576Z,2.43
2019-06-27T06:28:50.374Z,2.60
2019-06-27T06:31:18.071Z,2.83
2019-06-27T06:33:45.827Z,2.60
2019-06-27T06:36:13.808Z,2.50
2019-06-27T06:38:41.841Z,2.57
2019-06-27T06:41:09.622Z,3.00
2019-06-27T06:43:37.454Z,3.30
2019-06-27T06:46:05.432Z,2.50
2019-06-27T06:48:33.235Z,2.53
2019-06-27T06:51:01.142Z,2.40
2019-06-27T06:53:29.289Z,2.60
2019-06-27T06:55:57.142Z,3.07
2019-06-27T06:58:24.933Z,2.70
2019-06-27T07:01:01.706Z,2.53
2019-06-27T07:03:22.763Z,2.27
2019-06-27T07:05:50.447Z,2.80
2019-06-27T07:08:18.388Z,2.07
2019-06-27T07:10:46.098Z,2.70
2019-06-27T07:13:13.963Z,2.40
2019-06-27T07:15:41.821Z,2.67
2019-06-27T07:18:09.735Z,2.10
2019-06-27T07:20:37.492Z,2.10
2019-06-27T07:23:05.271Z,2.50
2019-06-27T07:25:33.086Z,2.70
2019-06-27T07:28:00.963Z,2.87
2019-06-27T07:30:28.777Z,2.30
2019-06-27T07:32:56.745Z,2.67
2019-06-27T07:35:24.524Z,2.30
2019-06-27T07:37:53.030Z,2.83
2019-06-27T07:40:21.040Z,2.60
2019-06-27T07:42:48.899Z,2.40
2019-06-27T07:45:16.894Z,2.80
2019-06-27T07:47:44.674Z,2.67
2019-06-27T07:50:12.896Z,2.43
2019-06-27T07:52:40.826Z,3.13
2019-06-27T07:55:10.958Z,2.60
2019-06-27T07:57:38.891Z,2.77
2019-06-27T08:00:08.200Z,2.77
2019-06-27T08:02:36.149Z,2.77
2019-06-27T08:05:04.512Z,2.90
2019-06-27T08:07:32.561Z,3.30
2019-06-27T08:10:00.613Z,2.60
2019-06-27T08:12:28.486Z,2.50
2019-06-27T08:14:56.351Z,3.00
2019-06-27T08:17:25.461Z,2.67
2019-06-27T08:19:53.521Z,2.97
2019-06-27T08:22:21.446Z,2.50
2019-06-27T08:24:49.249Z,2.60
2019-06-27T08:27:17.134Z,2.17
2019-06-27T08:29:45.079Z,2.13
2019-06-27T08:32:12.847Z,2.57
2019-06-27T08:34:40.741Z,2.67
2019-06-27T08:37:08.525Z,2.60
2019-06-27T08:39:36.434Z,2.27
2019-06-27T08:42:04.479Z,2.80
2019-06-27T08:44:32.484Z,2.43
2019-06-27T08:47:00.466Z,2.00
2019-06-27T08:49:28.312Z,2.70
2019-06-27T08:51:56.072Z,2.27
2019-06-27T08:54:23.988Z,2.10
2019-06-27T08:56:51.862Z,2.37
2019-06-27T08:59:19.904Z,2.50
2019-06-27T09:01:47.712Z,2.37
2019-06-27T09:04:15.628Z,2.20
2019-06-27T09:06:44.161Z,1.83
2019-06-27T09:09:12.084Z,2.30
2019-06-27T09:11:39.898Z,3.47
2019-06-27T09:14:07.893Z,1.90
2019-06-27T09:16:35.739Z,1.80
2019-06-27T09:19:03.766Z,1.80
2019-06-27T09:21:31.601Z,2.00
2019-06-27T09:23:59.580Z,2.20
2019-06-27T09:26:27.364Z,1.90
2019-06-27T09:29:05.141Z,2.03
2019-06-27T09:31:32.930Z,1.80
2019-06-27T09:34:00.823Z,1.60
2019-06-27T09:36:28.672Z,1.80
2019-06-27T09:38:56.610Z,2.33
2019-06-27T09:41:24.521Z,3.10
2019-06-27T09:43:52.503Z,1.80
2019-06-27T09:46:20.400Z,1.97
2019-06-27T09:48:48.233Z,1.93
2019-06-27T09:51:16.264Z,1.70
2019-06-27T09:53:44.119Z,1.80
2019-06-27T09:56:11.988Z,1.70
2019-06-27T09:58:39.949Z,1.30
2019-06-27T10:01:07.860Z,1.63
2019-06-27T10:03:35.785Z,1.90
2019-06-27T10:06:03.706Z,1.40
2019-06-27T10:08:31.599Z,1.80
2019-06-27T10:11:00.788Z,1.77
2019-06-27T10:13:28.676Z,1.60
2019-06-27T10:15:56.578Z,1.80
2019-06-27T10:18:25.313Z,1.50
2019-06-27T10:20:53.347Z,5.60
2019-06-27T10:23:21.179Z,1.70
2019-06-27T10:25:49.156Z,1.57
2019-06-27T10:28:17.027Z,1.80
2019-06-27T10:30:49.326Z,2.00
2019-06-27T10:33:17.177Z,1.97
2019-06-27T10:35:44.981Z,2.07
2019-06-27T10:38:12.847Z,1.73
2019-06-27T10:40:41.000Z,2.03
2019-06-27T10:43:08.839Z,2.27
2019-06-27T10:45:36.727Z,2.10
2019-06-27T10:48:04.453Z,1.80
2019-06-27T10:50:32.531Z,1.67
2019-06-27T10:53:00.357Z,1.33
2019-06-27T10:55:28.432Z,1.60
2019-06-27T10:57:56.238Z,1.47
2019-06-27T11:00:24.751Z,1.60
2019-06-27T11:02:52.655Z,2.10
2019-06-27T11:05:20.573Z,1.60
2019-06-27T11:07:48.412Z,1.60
2019-06-27T11:10:16.427Z,1.53
2019-06-27T11:12:45.228Z,1.97
2019-06-27T11:15:13.422Z,1.73
2019-06-27T11:17:41.132Z,1.67
2019-06-27T11:20:09.194Z,1.97
2019-06-27T11:22:37.215Z,1.50
2019-06-27T11:25:05.592Z,1.50
2019-06-27T11:27:33.635Z,1.97
2019-06-27T11:30:01.570Z,1.70
2019-06-27T11:32:29.705Z,1.60
2019-06-27T11:34:57.607Z,1.63
2019-06-27T11:37:25.411Z,1.73
2019-06-27T11:39:53.275Z,2.27
2019-06-27T11:42:21.198Z,1.70
2019-06-27T11:44:49.029Z,1.50
2019-06-27T11:47:16.892Z,1.53
2019-06-27T11:49:44.730Z,2.40
2019-06-27T11:52:13.098Z,2.23
2019-06-27T11:54:41.043Z,1.90
2019-06-27T11:57:08.895Z,2.00
2019-06-27T11:59:36.796Z,1.77
2019-06-27T12:02:04.907Z,2.10
2019-06-27T12:04:41.231Z,1.70
2019-06-27T12:07:09.117Z,1.77
2019-06-27T12:09:37.151Z,1.70
2019-06-27T12:12:05.217Z,1.80
2019-06-27T12:14:32.930Z,1.83
2019-06-27T12:17:00.747Z,1.93
2019-06-27T12:19:28.666Z,2.10
2019-06-27T12:21:56.639Z,1.80
2019-06-27T12:24:24.385Z,1.63
2019-06-27T12:26:52.273Z,2.03
2019-06-27T12:29:20.340Z,1.70
2019-06-27T12:31:51.476Z,1.57
2019-06-27T12:34:17.774Z,1.73
2019-06-27T12:36:45.587Z,1.80
2019-06-27T12:39:13.458Z,1.70
2019-06-27T12:41:41.246Z,2.27
2019-06-27T12:44:09.221Z,1.70
2019-06-27T12:46:37.160Z,1.90
2019-06-27T12:49:05.031Z,1.93
2019-06-27T12:51:32.982Z,1.70
2019-06-27T12:54:00.671Z,1.90
2019-06-27T12:56:28.589Z,2.33
2019-06-27T12:58:56.813Z,1.70
2019-06-27T13:01:24.642Z,1.53
2019-06-27T13:03:52.414Z,1.40
2019-06-27T13:06:20.239Z,1.10
2019-06-27T13:08:48.064Z,1.63
2019-06-27T13:11:15.888Z,1.23
2019-06-27T13:13:43.920Z,1.37
2019-06-27T13:16:12.036Z,1.50
2019-06-27T13:18:40.017Z,1.77
2019-06-27T13:21:07.806Z,1.30
2019-06-27T13:23:35.588Z,1.70
2019-06-27T13:26:04.184Z,1.30
2019-06-27T13:28:32.021Z,1.70
2019-06-27T13:30:59.854Z,1.43
2019-06-27T13:33:27.726Z,0.93
2019-06-27T13:35:55.603Z,1.37
2019-06-27T13:38:23.387Z,1.20
2019-06-27T13:40:51.204Z,1.70
2019-06-27T13:43:19.106Z,1.50
2019-06-27T13:45:46.857Z,1.30
2019-06-27T13:48:14.659Z,1.50
2019-06-27T13:50:44.176Z,1.50
2019-06-27T13:53:11.979Z,1.40
2019-06-27T13:55:39.824Z,1.30
2019-06-27T13:58:07.657Z,1.70
2019-06-27T14:00:43.284Z,1.27
2019-06-27T14:03:11.429Z,1.27
2019-06-27T14:05:40.206Z,1.87
2019-06-27T14:08:08.493Z,1.43
2019-06-27T14:10:36.580Z,1.20
2019-06-27T14:13:04.485Z,1.40
2019-06-27T14:15:32.455Z,1.63
2019-06-27T14:18:00.587Z,1.40
2019-06-27T14:20:28.524Z,1.23
2019-06-27T14:22:57.082Z,2.00
2019-06-27T14:25:25.126Z,1.17
2019-06-27T14:27:53.091Z,1.40
2019-06-27T14:30:21.197Z,1.70
2019-06-27T14:32:52.309Z,1.47
2019-06-27T14:35:19.007Z,1.33
2019-06-27T14:37:47.700Z,1.53
2019-06-27T14:40:18.032Z,1.50
2019-06-27T14:42:45.928Z,1.20
2019-06-27T14:45:14.509Z,1.30
2019-06-27T14:47:42.289Z,1.37
2019-06-27T14:50:11.536Z,1.30
2019-06-27T14:52:39.390Z,1.17
2019-06-27T14:55:07.892Z,1.50
2019-06-27T14:57:35.711Z,1.30
2019-06-27T15:00:04.269Z,1.40
2019-06-27T15:02:32.114Z,1.40
2019-06-27T15:04:59.956Z,1.57
2019-06-27T15:07:28.025Z,1.20
2019-06-27T15:09:56.561Z,1.27
2019-06-27T15:12:24.537Z,1.47
2019-06-27T15:14:52.337Z,1.60
2019-06-27T15:17:20.132Z,1.40
2019-06-27T15:19:48.214Z,1.40
2019-06-27T15:22:16.032Z,1.47
2019-06-27T15:24:44.020Z,1.30
2019-06-27T15:27:12.051Z,1.30
2019-06-27T15:29:39.831Z,1.30
2019-06-27T15:32:07.557Z,1.30
2019-06-27T15:34:36.820Z,1.20
2019-06-27T15:37:04.641Z,1.40
2019-06-27T15:39:32.717Z,1.37
2019-06-27T15:42:07.637Z,1.17
2019-06-27T15:44:36.931Z,1.50
2019-06-27T15:47:04.813Z,1.50
2019-06-27T15:49:32.740Z,1.43
2019-06-27T15:52:00.684Z,1.37
2019-06-27T15:54:28.626Z,1.30
2019-06-27T15:56:56.489Z,1.23
2019-06-27T15:59:24.395Z,1.60
2019-06-27T16:01:52.372Z,1.30
2019-06-27T16:04:32.314Z,1.73
2019-06-27T16:06:50.073Z,1.30
2019-06-27T16:09:18.055Z,1.73
2019-06-27T16:11:45.924Z,1.40
2019-06-27T16:14:13.739Z,1.20
2019-06-27T16:16:41.481Z,1.17
2019-06-27T16:19:09.299Z,1.10
2019-06-27T16:21:38.023Z,1.30
2019-06-27T16:24:05.933Z,1.40
2019-06-27T16:26:34.035Z,1.40
2019-06-27T16:29:02.858Z,1.30
2019-06-27T16:31:31.465Z,1.30
2019-06-27T16:33:59.261Z,1.47
2019-06-27T16:36:27.052Z,1.07
2019-06-27T16:38:55.114Z,1.10
2019-06-27T16:41:23.021Z,1.47
2019-06-27T16:44:00.646Z,1.13
2019-06-27T16:46:28.626Z,1.27
2019-06-27T16:48:56.487Z,1.60
2019-06-27T16:51:24.470Z,1.30
2019-06-27T16:53:52.527Z,1.10
2019-06-27T16:56:21.019Z,1.20
2019-06-27T16:58:49.659Z,0.93
2019-06-27T17:01:17.465Z,1.47
2019-06-27T17:03:45.326Z,1.50
2019-06-27T17:06:13.095Z,0.93
2019-06-27T17:08:42.111Z,1.40
2019-06-27T17:11:10.544Z,1.10
2019-06-27T17:13:38.314Z,1.30
2019-06-27T17:16:06.202Z,1.33
2019-06-27T17:18:34.188Z,1.30
2019-06-27T17:21:02.278Z,1.23
2019-06-27T17:23:30.102Z,1.37
2019-06-27T17:25:58.138Z,1.40
2019-06-27T17:28:26.049Z,1.40
2019-06-27T17:30:53.966Z,1.10
2019-06-27T17:33:21.749Z,1.23
2019-06-27T17:35:49.571Z,1.03
2019-06-27T17:38:17.297Z,1.10
2019-06-27T17:40:45.189Z,1.40
2019-06-27T17:43:13.012Z,1.00
2019-06-27T17:45:41.691Z,1.33
2019-06-27T17:48:09.435Z,1.53
2019-06-27T17:50:37.347Z,1.30
2019-06-27T17:53:05.300Z,1.17
2019-06-27T17:55:33.790Z,1.13
2019-06-27T17:58:01.541Z,1.40
2019-06-27T18:00:29.265Z,1.17
2019-06-27T18:02:56.994Z,1.30
2019-06-27T18:05:26.756Z,1.50
2019-06-27T18:07:54.692Z,1.43
2019-06-27T18:10:22.731Z,2.03
2019-06-27T18:12:50.590Z,1.50
2019-06-27T18:15:18.610Z,1.33
2019-06-27T18:17:46.787Z,1.53
2019-06-27T18:20:15.249Z,1.40
2019-06-27T18:22:43.007Z,1.30
2019-06-27T18:25:11.039Z,1.57
2019-06-27T18:27:38.802Z,2.57
2019-06-27T18:30:07.350Z,2.00
2019-06-27T18:32:37.747Z,1.47
2019-06-27T18:35:06.383Z,1.70
2019-06-27T18:37:34.375Z,1.40
2019-06-27T18:40:02.370Z,1.80
2019-06-27T18:42:30.929Z,1.33
2019-06-27T18:44:58.692Z,1.83
2019-06-27T18:47:26.622Z,1.67
2019-06-27T18:49:54.589Z,2.20
2019-06-27T18:52:22.363Z,2.20
2019-06-27T18:54:50.212Z,2.00
2019-06-27T18:57:18.068Z,1.70
2019-06-27T18:59:45.849Z,2.10
2019-06-27T19:02:13.699Z,1.80
2019-06-27T19:04:41.458Z,2.27
2019-06-27T19:07:09.608Z,2.50
2019-06-27T19:09:37.493Z,1.60
2019-06-27T19:12:05.369Z,1.70
2019-06-27T19:14:33.232Z,1.80
2019-06-27T19:17:02.266Z,1.60
2019-06-27T19:19:35.167Z,1.73
2019-06-27T19:22:22.813Z,1.83
2019-06-27T19:24:56.115Z,1.73
2019-06-27T19:27:23.941Z,1.70
2019-06-27T19:29:52.852Z,1.90
2019-06-27T19:32:20.683Z,1.70
2019-06-27T19:34:48.609Z,1.60
2019-06-27T19:37:16.521Z,2.10
2019-06-27T19:39:44.326Z,1.70
2019-06-27T19:42:12.625Z,1.90
2019-06-27T19:44:40.405Z,1.93
2019-06-27T19:47:08.344Z,1.73
2019-06-27T19:49:36.885Z,1.80
2019-06-27T19:52:04.787Z,1.60
2019-06-27T19:54:44.009Z,2.00
2019-06-27T19:57:11.997Z,1.97
2019-06-27T19:59:41.306Z,1.90
2019-06-27T20:02:09.191Z,1.97
2019-06-27T20:04:36.990Z,1.40
2019-06-27T20:07:04.929Z,2.10
2019-06-27T20:09:33.682Z,1.90
2019-06-27T20:12:01.584Z,2.33
2019-06-27T20:14:30.403Z,2.57
2019-06-27T20:16:58.511Z,1.83
2019-06-27T20:19:26.242Z,1.73
2019-06-27T20:21:54.240Z,2.10
2019-06-27T20:24:22.124Z,2.00
2019-06-27T20:26:49.919Z,1.57
2019-06-27T20:29:17.889Z,1.70
2019-06-27T20:31:45.777Z,2.10
2019-06-27T20:34:13.554Z,2.10
2019-06-27T20:36:41.531Z,2.10
2019-06-27T20:39:09.376Z,2.00
2019-06-27T20:41:37.171Z,1.80
2019-06-27T20:44:06.867Z,2.20
2019-06-27T20:46:34.937Z,2.13
2019-06-27T20:49:02.745Z,2.10
2019-06-27T20:51:31.010Z,2.17
2019-06-27T20:53:58.883Z,2.00
2019-06-27T20:56:30.153Z,1.80
2019-06-27T20:58:56.694Z,1.83
2019-06-27T21:01:24.560Z,1.80
2019-06-27T21:03:53.058Z,1.90
2019-06-27T21:06:20.864Z,2.10
2019-06-27T21:08:51.710Z,2.30
2019-06-27T21:11:19.758Z,2.20
2019-06-27T21:13:47.875Z,2.30
2019-06-27T21:16:15.694Z,1.80
2019-06-27T21:18:43.561Z,1.90
2019-06-27T21:21:11.612Z,1.80
2019-06-27T21:23:39.607Z,2.13
2019-06-27T21:26:07.647Z,2.20
2019-06-27T21:28:35.443Z,2.07
2019-06-27T21:31:03.792Z,2.40
2019-06-27T21:33:31.740Z,2.10
2019-06-27T21:35:59.553Z,2.37
2019-06-27T21:38:28.080Z,2.30
2019-06-27T21:40:55.840Z,2.40
2019-06-27T21:43:23.754Z,2.30
2019-06-27T21:45:51.522Z,2.10
2019-06-27T21:48:19.309Z,2.33
2019-06-27T21:50:47.050Z,2.57
2019-06-27T21:53:15.075Z,2.70
2019-06-27T21:55:42.921Z,2.20
2019-06-27T21:58:10.791Z,2.23
2019-06-27T22:00:38.710Z,2.13
2019-06-27T22:03:06.730Z,2.30
2019-06-27T22:05:34.679Z,1.93
2019-06-27T22:08:02.577Z,2.60
2019-06-27T22:10:30.428Z,2.30
2019-06-27T22:12:58.235Z,2.60
2019-06-27T22:15:26.250Z,2.30
2019-06-27T22:17:54.265Z,2.50
2019-06-27T22:20:22.208Z,2.40
2019-06-27T22:22:50.095Z,2.10
2019-06-27T22:25:18.298Z,2.20
2019-06-27T22:27:46.191Z,2.50
2019-06-27T22:30:14.276Z,2.37
2019-06-27T22:32:42.192Z,2.70
2019-06-27T22:35:10.243Z,2.27
2019-06-27T22:37:37.671Z,2.37
2019-06-27T22:40:24.381Z,2.50
2019-06-27T22:43:10.170Z,2.40
2019-06-27T22:45:56.616Z,2.50
2019-06-27T22:48:24.283Z,2.73
2019-06-27T22:51:09.232Z,2.33
2019-06-27T22:53:56.034Z,2.43
2019-06-27T22:56:24.530Z,2.10
2019-06-27T22:58:52.557Z,2.47
2019-06-27T23:01:20.428Z,2.50
2019-06-27T23:03:48.383Z,2.60
2019-06-27T23:06:16.246Z,2.60
2019-06-27T23:08:44.109Z,2.47
2019-06-27T23:11:12.161Z,2.40
2019-06-27T23:13:40.015Z,2.77
2019-06-27T23:16:07.920Z,2.60
2019-06-27T23:18:35.735Z,2.50
2019-06-27T23:21:04.672Z,2.57
2019-06-27T23:23:32.606Z,2.70
2019-06-27T23:26:00.466Z,2.80
2019-06-27T23:28:28.221Z,2.47
2019-06-27T23:30:56.279Z,3.00
2019-06-27T23:33:24.172Z,2.73
2019-06-27T23:35:52.683Z,2.60
2019-06-27T23:38:21.251Z,2.67
2019-06-27T23:40:49.146Z,2.53
2019-06-27T23:43:16.895Z,2.70
2019-06-27T23:45:44.826Z,2.57
2019-06-27T23:48:12.677Z,2.60
2019-06-27T23:50:40.481Z,2.73
2019-06-27T23:53:08.255Z,2.70
2019-06-27T23:55:36.064Z,3.10
2019-06-27T23:58:03.923Z,3.37
